Time;durP1;ratioP1;P1;durP2;ratioP2;P2;SDS_P1;SDS_P2;PMS_P1;PMS_P2;Temp;Humidity;BMP_temperature;BMP_pressure;BME280_temperature;BME280_humidity;BME280_pressure;Samples;Min_cycle;Max_cycle;Signal;HPM_P1;HPM_P2
2022/11/09 00:00:43;;;;;;;2.63;0.57;;;22.00;59.70;;;;;;6260037;28;19924;-36
2022/11/09 00:03:45;;;;;;;1.98;0.50;;;21.50;59.40;;;;;;6261185;28;20042;-36
2022/11/09 00:06:47;;;;;;;0.88;0.47;;;21.80;59.50;;;;;;6249454;28;20036;-36
2022/11/09 00:09:48;;;;;;;1.70;0.30;;;21.50;59.30;;;;;;6264378;28;20059;-36
2022/11/09 00:12:51;;;;;;;1.17;0.40;;;21.60;59.00;;;;;;6262243;28;20080;-36
2022/11/09 00:15:52;;;;;;;0.63;0.30;;;21.90;59.40;;;;;;6261527;28;20906;-36
2022/11/09 00:18:54;;;;;;;;;;;21.50;59.10;;;;;;6266622;28;21263;-36
2022/11/09 00:21:56;;;;;;;0.55;0.30;;;22.00;59.20;;;;;;6245973;28;20872;-36
2022/11/09 00:24:58;;;;;;;1.08;0.50;;;21.60;59.20;;;;;;6262712;28;21010;-37
2022/11/09 00:28:00;;;;;;;;;;;21.60;59.30;;;;;;6265684;28;20143;-36
2022/11/09 00:31:04;;;;;;;1.40;0.50;;;21.80;59.40;;;;;;6262391;28;19935;-37
2022/11/09 00:34:06;;;;;;;0.60;0.30;;;21.60;59.10;;;;;;6266111;28;20411;-36
2022/11/09 00:37:08;;;;;;;1.85;0.50;;;21.60;58.90;;;;;;6265783;28;20099;-36
2022/11/09 00:40:12;;;;;;;1.33;0.40;;;21.20;59.00;;;;;;6268136;28;20052;-36
2022/11/09 00:43:15;;;;;;;0.77;0.38;;;21.20;59.00;;;;;;6264506;28;20048;-36
2022/11/09 00:46:20;;;;;;;0.25;0.25;;;21.50;59.00;;;;;;6269684;28;20125;-36
2022/11/09 00:49:28;;;;;;;0.60;0.30;;;21.50;58.50;;;;;;6251923;28;20056;-36
2022/11/09 00:52:29;;;;;;;0.60;0.30;;;21.80;59.20;;;;;;6268696;28;20060;-36
2022/11/09 00:55:31;;;;;;;;;;;21.30;59.00;;;;;;6264195;28;20051;-36
2022/11/09 00:58:35;;;;;;;0.77;0.32;;;21.30;59.40;;;;;;6262356;28;20011;-36
2022/11/09 01:01:36;;;;;;;0.82;0.25;;;21.70;59.20;;;;;;6245482;28;20028;-36
2022/11/09 01:04:39;;;;;;;0.45;0.20;;;21.60;59.30;;;;;;6266578;28;20133;-36
2022/11/09 01:07:41;;;;;;;0.65;0.20;;;21.80;59.00;;;;;;6292031;22;20920;-36
2022/11/09 01:10:44;;;;;;;0.57;0.20;;;21.70;58.90;;;;;;6266066;28;20059;-36
2022/11/09 01:13:46;;;;;;;0.32;0.20;;;21.40;58.90;;;;;;6250469;28;20079;-36
2022/11/09 01:16:48;;;;;;;0.47;0.40;;;21.80;59.20;;;;;;6272096;28;20044;-36
2022/11/09 01:19:50;;;;;;;0.70;0.30;;;21.70;58.90;;;;;;6277096;28;20043;-36
2022/11/09 01:22:53;;;;;;;0.35;0.28;;;21.60;59.10;;;;;;6275430;28;20891;-36
2022/11/09 01:25:57;;;;;;;1.17;0.50;;;21.60;59.00;;;;;;6280556;28;20044;-36
2022/11/09 01:29:00;;;;;;;0.63;0.28;;;21.60;59.00;;;;;;6258497;28;20051;-36
2022/11/09 01:32:03;;;;;;;0.25;0.15;;;21.80;59.30;;;;;;6279665;28;20047;-36
2022/11/09 01:35:06;;;;;;;0.70;0.30;;;21.40;58.90;;;;;;6260768;28;20124;-36
2022/11/09 01:38:09;;;;;;;0.30;0.20;;;21.60;58.60;;;;;;6276682;28;20832;-37
2022/11/09 01:41:17;;;;;;;0.20;0.20;;;21.50;59.20;;;;;;6258100;28;20184;-36
2022/11/09 01:44:20;;;;;;;0.60;0.28;;;21.60;59.10;;;;;;6261748;28;20890;-36
2022/11/09 01:47:25;;;;;;;0.95;0.22;;;21.50;59.00;;;;;;6277686;28;20042;-36
2022/11/09 01:50:35;;;;;;;0.70;0.30;;;21.50;59.00;;;;;;6273899;28;20861;-36
2022/11/09 01:53:44;;;;;;;0.43;0.20;;;21.60;59.20;;;;;;6256349;28;20048;-36
2022/11/09 01:56:50;;;;;;;1.08;0.35;;;21.80;59.30;;;;;;6273790;28;20181;-36
2022/11/09 01:59:56;;;;;;;0.75;0.35;;;21.60;59.20;;;;;;6272849;28;20051;-36
2022/11/09 02:03:01;;;;;;;0.68;0.32;;;21.90;59.50;;;;;;6268703;28;21714;-36
2022/11/09 02:06:05;;;;;;;0.35;0.10;;;21.60;59.10;;;;;;6250387;28;21086;-36
2022/11/09 02:09:14;;;;;;;0.85;0.35;;;21.80;59.40;;;;;;6247497;28;20040;-36
2022/11/09 02:12:17;;;;;;;0.50;0.30;;;21.30;59.00;;;;;;6250077;28;20845;-36
2022/11/09 02:15:21;;;;;;;0.90;0.38;;;21.60;59.00;;;;;;6238999;28;20051;-36
2022/11/09 02:18:22;;;;;;;0.75;0.30;;;21.70;59.40;;;;;;6250360;28;20032;-37
2022/11/09 02:21:26;;;;;;;;;;;21.60;59.30;;;;;;6259335;22;20056;-34
2022/11/09 02:24:29;;;;;;;0.73;0.20;;;21.70;59.70;;;;;;6185038;28;19968;-36
2022/11/09 02:27:31;;;;;;;0.47;0.25;;;21.40;59.30;;;;;;6206329;28;20049;-36
2022/11/09 02:30:34;;;;;;;0.63;0.28;;;21.40;59.40;;;;;;6204426;28;21024;-36
2022/11/09 02:33:43;;;;;;;1.05;0.25;;;21.40;59.30;;;;;;6260025;22;20393;-37
2022/11/09 02:36:48;;;;;;;0.50;0.20;;;21.50;59.30;;;;;;6233575;28;20048;-37
2022/11/09 02:39:56;;;;;;;0.55;0.20;;;21.20;59.20;;;;;;6251868;28;20040;-37
2022/11/09 02:42:59;;;;;;;0.47;0.20;;;21.50;59.30;;;;;;6231801;28;20036;-37
2022/11/09 02:46:01;;;;;;;0.60;0.30;;;21.60;59.30;;;;;;6253480;28;20128;-37
2022/11/09 02:49:04;;;;;;;0.90;0.40;;;21.40;59.40;;;;;;6256437;28;20044;-37
2022/11/09 02:52:07;;;;;;;0.55;0.30;;;21.50;59.60;;;;;;6254552;28;20043;-37
2022/11/09 02:55:09;;;;;;;0.35;0.32;;;21.20;59.20;;;;;;6252541;28;20072;-37
2022/11/09 02:58:13;;;;;;;0.73;0.30;;;20.70;58.80;;;;;;6261491;28;20151;-37
2022/11/09 03:01:15;;;;;;;0.32;0.13;;;21.60;59.60;;;;;;6255361;28;20052;-37
2022/11/09 03:04:21;;;;;;;0.55;0.20;;;21.20;59.30;;;;;;6237366;28;20040;-37
2022/11/09 03:07:25;;;;;;;0.43;0.25;;;21.20;59.40;;;;;;6245468;28;20062;-37
2022/11/09 03:10:27;;;;;;;0.15;0.13;;;21.30;59.40;;;;;;6243106;28;20039;-36
2022/11/09 03:13:29;;;;;;;0.45;0.28;;;21.30;59.50;;;;;;6242907;28;20607;-37
2022/11/09 03:16:32;;;;;;;1.02;0.40;;;21.40;59.60;;;;;;6240805;28;20040;-36
2022/11/09 03:19:33;;;;;;;0.32;0.20;;;21.10;59.40;;;;;;6243466;28;20040;-37
2022/11/09 03:22:35;;;;;;;;;;;21.30;59.30;;;;;;6244343;28;20049;-34
2022/11/09 03:25:38;;;;;;;0.40;0.30;;;21.20;59.70;;;;;;6245179;28;20414;-37
2022/11/09 03:28:39;;;;;;;0.30;0.15;;;21.30;58.80;;;;;;6246215;28;20765;-37
2022/11/09 03:31:41;;;;;;;0.50;0.38;;;21.20;59.50;;;;;;6247049;28;20048;-36
2022/11/09 03:34:45;;;;;;;0.43;0.30;;;21.50;59.80;;;;;;6215190;28;20347;-37
2022/11/09 03:37:49;;;;;;;0.30;0.20;;;21.20;59.50;;;;;;6218597;28;20044;-37
2022/11/09 03:40:50;;;;;;;0.57;0.30;;;21.30;59.50;;;;;;6223796;28;20048;-37
2022/11/09 03:43:52;;;;;;;0.50;0.30;;;21.00;59.30;;;;;;6228019;28;20048;-37
2022/11/09 03:46:54;;;;;;;0.50;0.15;;;21.20;59.30;;;;;;6229050;28;20047;-34
2022/11/09 03:49:55;;;;;;;;;;;21.20;59.50;;;;;;6233787;28;20164;-34
2022/11/09 03:52:58;;;;;;;0.30;0.20;;;21.40;59.70;;;;;;6231195;28;20099;-34
2022/11/09 03:55:59;;;;;;;0.77;0.30;;;21.00;59.20;;;;;;6216402;28;20618;-37
2022/11/09 03:59:01;;;;;;;;;;;21.20;59.20;;;;;;6232089;28;20055;-36
2022/11/09 04:02:03;;;;;;;0.28;0.22;;;20.80;59.40;;;;;;6230113;28;20823;-36
2022/11/09 04:05:06;;;;;;;0.52;0.20;;;21.30;59.10;;;;;;6225578;28;20048;-36
2022/11/09 04:08:09;;;;;;;0.38;0.22;;;21.10;59.20;;;;;;6227206;28;20044;-36
2022/11/09 04:11:11;;;;;;;0.30;0.30;;;21.50;59.30;;;;;;6226700;28;21078;-36
2022/11/09 04:14:14;;;;;;;0.95;0.20;;;21.00;59.20;;;;;;6233088;28;20068;-36
2022/11/09 04:17:40;;;;;;;0.75;0.25;;;21.20;59.20;;;;;;6234201;28;20037;-37
2022/11/09 04:20:43;;;;;;;0.35;0.13;;;21.40;59.10;;;;;;6227235;28;20182;-38
2022/11/09 04:23:47;;;;;;;0.52;0.20;;;21.10;59.00;;;;;;6227141;28;20778;-37
2022/11/09 04:26:49;;;;;;;0.40;0.20;;;21.30;59.20;;;;;;6212894;28;20178;-37
2022/11/09 04:29:50;;;;;;;0.43;0.25;;;21.30;59.30;;;;;;6226475;28;21154;-39
2022/11/09 04:32:51;;;;;;;0.13;0.10;;;21.10;60.10;;;;;;6229283;28;20037;-38
2022/11/09 04:35:53;;;;;;;;;;;21.40;59.90;;;;;;6229508;28;20151;-39
2022/11/09 04:38:55;;;;;;;1.00;0.20;;;21.00;59.90;;;;;;6224495;28;20025;-39
2022/11/09 04:41:56;;;;;;;0.50;0.17;;;21.40;59.50;;;;;;6232350;28;20347;-39
2022/11/09 04:44:58;;;;;;;0.08;0.08;;;21.40;59.80;;;;;;6230570;28;20964;-39
2022/11/09 04:48:00;;;;;;;0.40;0.10;;;20.90;59.40;;;;;;6229402;28;20148;-39
2022/11/09 04:51:04;;;;;;;1.25;0.20;;;21.20;59.50;;;;;;6210620;28;20093;-39
2022/11/09 04:54:06;;;;;;;0.40;0.20;;;21.20;59.30;;;;;;6181498;28;20049;-39
2022/11/09 04:57:07;;;;;;;0.60;0.28;;;21.30;59.50;;;;;;6230646;28;21229;-38
2022/11/09 05:00:10;;;;;;;0.40;0.30;;;21.30;59.70;;;;;;6231057;28;20044;-40
2022/11/09 05:03:16;;;;;;;0.68;0.20;;;21.30;59.40;;;;;;6238005;28;20051;-38
2022/11/09 05:06:38;;;;;;;0.50;0.20;;;20.90;59.00;;;;;;6223554;28;20048;-39
2022/11/09 05:09:41;;;;;;;1.35;0.40;;;21.30;59.50;;;;;;6231469;28;20040;-38
2022/11/09 05:12:42;;;;;;;0.88;0.45;;;20.90;59.30;;;;;;6232447;28;20040;-38
2022/11/09 05:15:47;;;;;;;0.63;0.30;;;21.60;59.60;;;;;;6232097;28;20041;-38
2022/11/09 05:18:49;;;;;;;0.38;0.20;;;21.20;59.20;;;;;;6232308;28;20902;-39
2022/11/09 05:21:50;;;;;;;0.57;0.40;;;21.10;59.10;;;;;;6224978;28;20809;-39
2022/11/09 05:24:52;;;;;;;0.68;0.20;;;21.40;59.10;;;;;;6224244;28;20041;-38
2022/11/09 05:27:54;;;;;;;0.98;0.45;;;21.30;59.40;;;;;;6233923;28;21225;-39
2022/11/09 05:30:55;;;;;;;1.15;0.60;;;20.90;59.10;;;;;;6223837;28;20046;-38
2022/11/09 05:33:58;;;;;;;1.50;0.57;;;21.20;59.20;;;;;;6221262;28;20040;-39
2022/11/09 05:36:59;;;;;;;0.50;0.40;;;20.90;59.10;;;;;;6220385;28;20199;-39
2022/11/09 05:40:06;;;;;;;0.80;0.40;;;21.20;59.30;;;;;;6217084;28;20714;-39
2022/11/09 05:43:08;;;;;;;0.95;0.47;;;21.20;59.10;;;;;;6216678;28;20506;-38
2022/11/09 05:46:10;;;;;;;0.77;0.40;;;21.20;59.30;;;;;;6215925;28;20599;-38
2022/11/09 05:49:36;;;;;;;0.75;0.43;;;21.40;59.40;;;;;;6216763;28;20175;-38
2022/11/09 05:52:38;;;;;;;0.40;0.22;;;21.00;59.50;;;;;;6220900;28;20037;-40
2022/11/09 05:56:07;;;;;;;1.27;0.60;;;21.10;58.90;;;;;;6221672;28;20179;-41
2022/11/09 05:59:08;;;;;;;0.95;0.40;;;21.20;59.60;;;;;;6224533;28;20899;-38
2022/11/09 06:02:10;;;;;;;0.95;0.30;;;21.20;59.40;;;;;;6220987;28;20076;-38
2022/11/09 06:05:12;;;;;;;0.65;0.40;;;20.90;59.30;;;;;;6213179;28;20610;-39
2022/11/09 06:08:14;;;;;;;0.57;0.30;;;21.10;58.90;;;;;;6181955;28;20045;-38
2022/11/09 06:11:16;;;;;;;1.55;0.52;;;21.10;59.30;;;;;;6224563;28;20150;-38
2022/11/09 06:14:25;;;;;;;0.40;0.40;;;21.20;59.40;;;;;;6223340;28;20044;-38
2022/11/09 06:17:27;;;;;;;0.60;0.40;;;20.80;59.10;;;;;;6229292;28;20049;-38
2022/11/09 06:20:28;;;;;;;;;;;20.80;59.20;;;;;;6222493;28;20900;-41
2022/11/09 06:23:30;;;;;;;1.95;0.40;;;21.70;60.00;;;;;;6222454;28;20050;-38
2022/11/09 06:26:32;;;;;;;0.40;0.20;;;21.30;59.40;;;;;;6220149;28;20060;-39
2022/11/09 06:29:34;;;;;;;1.23;0.50;;;21.30;59.50;;;;;;6219460;28;20051;-39
2022/11/09 06:32:35;;;;;;;2.13;0.50;;;21.20;59.50;;;;;;6220014;28;20143;-38
2022/11/09 06:35:37;;;;;;;;;;;21.60;59.80;;;;;;6219223;28;20041;-38
2022/11/09 06:38:39;;;;;;;2.15;0.70;;;20.90;59.50;;;;;;6204757;28;19997;-39
2022/11/09 06:41:41;;;;;;;2.38;0.70;;;21.10;59.40;;;;;;6202620;28;20194;-38
2022/11/09 06:44:48;;;;;;;2.17;0.80;;;21.10;59.30;;;;;;6217160;28;20056;-38
2022/11/09 06:47:49;;;;;;;;;;;21.50;59.80;;;;;;6217285;28;21179;-38
2022/11/09 06:50:51;;;;;;;2.70;0.75;;;21.10;59.90;;;;;;6217879;28;20058;-38
2022/11/09 06:53:52;;;;;;;;;;;21.20;59.60;;;;;;6218688;28;20091;-38
2022/11/09 06:56:55;;;;;;;2.13;0.40;;;21.30;59.90;;;;;;6216918;28;19928;-38
2022/11/09 06:59:59;;;;;;;1.25;0.50;;;21.20;59.80;;;;;;6212878;28;20126;-39
2022/11/09 07:03:01;;;;;;;1.27;0.70;;;21.10;59.60;;;;;;6212121;28;20882;-38
2022/11/09 07:06:05;;;;;;;0.60;0.38;;;21.30;59.60;;;;;;6210791;28;20045;-38
2022/11/09 07:09:06;;;;;;;0.70;0.43;;;21.20;59.40;;;;;;6210585;28;20048;-39
2022/11/09 07:12:08;;;;;;;;;;;21.20;59.40;;;;;;6199320;28;20068;-38
2022/11/09 07:15:11;;;;;;;1.40;0.60;;;21.10;59.60;;;;;;6195617;28;19934;-38
2022/11/09 07:18:13;;;;;;;3.15;0.80;;;20.90;59.30;;;;;;6198613;28;20380;-38
2022/11/09 07:21:14;;;;;;;;;;;21.20;59.50;;;;;;6195616;28;20140;-38
2022/11/09 07:24:16;;;;;;;1.65;0.50;;;21.30;59.70;;;;;;6192572;28;19928;-38
2022/11/09 07:27:18;;;;;;;1.45;0.30;;;21.10;59.30;;;;;;6187504;28;20122;-39
2022/11/09 07:30:25;;;;;;;4.10;0.47;;;21.30;59.70;;;;;;6184629;28;20070;-38
2022/11/09 07:33:29;;;;;;;;;;;21.20;59.40;;;;;;6186381;28;20040;-38
2022/11/09 07:36:31;;;;;;;0.88;0.30;;;21.60;60.00;;;;;;6178345;28;21114;-38
2022/11/09 07:39:33;;;;;;;0.50;0.30;;;20.70;58.90;;;;;;6178507;28;20072;-38
2022/11/09 07:42:35;;;;;;;1.90;0.40;;;21.10;59.40;;;;;;6167716;28;20045;-38
2022/11/09 07:45:36;;;;;;;0.52;0.20;;;21.20;59.40;;;;;;6153917;28;20919;-38
2022/11/09 07:48:38;;;;;;;0.82;0.40;;;21.40;59.60;;;;;;6168756;22;20553;-39
2022/11/09 07:51:39;;;;;;;;;;;21.30;59.30;;;;;;6139926;28;20055;-38
2022/11/09 07:54:41;;;;;;;1.27;0.30;;;20.90;59.40;;;;;;6133919;28;19928;-39
2022/11/09 07:57:43;;;;;;;2.20;0.30;;;21.50;59.30;;;;;;6090944;28;20290;-38
2022/11/09 08:00:45;;;;;;;1.75;0.50;;;21.00;59.40;;;;;;6067877;28;20198;-38
2022/11/09 08:03:46;;;;;;;;;;;21.20;59.50;;;;;;6097028;28;20047;-38
2022/11/09 08:06:47;;;;;;;0.63;0.20;;;21.50;59.70;;;;;;6087407;28;19929;-38
2022/11/09 08:09:49;;;;;;;;;;;22.00;59.90;;;;;;6045950;28;20045;-40
2022/11/09 08:12:53;;;;;;;0.43;0.17;;;20.90;55.70;;;;;;6085850;28;20051;-38
2022/11/09 08:16:00;;;;;;;0.88;0.40;;;22.10;55.70;;;;;;6014399;28;21431;-38
2022/11/09 08:19:02;;;;;;;0.40;0.25;;;21.10;55.20;;;;;;6051181;28;20052;-38
2022/11/09 08:22:03;;;;;;;0.75;0.38;;;21.40;55.10;;;;;;6076192;28;20044;-38
2022/11/09 08:25:05;;;;;;;0.80;0.38;;;21.50;55.40;;;;;;6072211;28;20641;-38
2022/11/09 08:28:08;;;;;;;0.32;0.22;;;21.50;55.10;;;;;;6036877;28;20059;-37
2022/11/09 08:31:16;;;;;;;1.77;0.63;;;21.60;55.30;;;;;;5982636;28;23646;-42
2022/11/09 08:34:17;;;;;;;;;;;21.60;55.40;;;;;;5944968;28;20044;-39
2022/11/09 08:37:19;;;;;;;0.73;0.50;;;21.80;55.60;;;;;;5934260;28;21251;-40
2022/11/09 08:40:23;;;;;;;1.02;0.65;;;21.60;55.30;;;;;;6009377;28;20051;-36
2022/11/09 08:43:25;;;;;;;1.63;0.45;;;21.60;55.90;;;;;;5942226;28;20041;-37
2022/11/09 08:46:27;;;;;;;0.93;0.30;;;21.40;55.20;;;;;;5973125;28;22248;-37
2022/11/09 08:49:28;;;;;;;;;;;21.70;55.10;;;;;;5983438;28;26058;-37
2022/11/09 08:52:30;;;;;;;0.40;0.30;;;21.50;55.40;;;;;;5972536;28;19971;-37
2022/11/09 08:55:32;;;;;;;0.90;0.40;;;21.80;55.30;;;;;;5958292;28;20055;-37
2022/11/09 08:58:35;;;;;;;0.43;0.20;;;21.40;54.60;;;;;;5984673;28;26852;-37
2022/11/09 09:01:36;;;;;;;0.70;0.30;;;21.80;55.20;;;;;;5936198;28;21429;-37
2022/11/09 09:04:38;;;;;;;0.32;0.20;;;21.80;54.90;;;;;;5950470;28;20041;-36
2022/11/09 09:07:41;;;;;;;1.60;0.30;;;21.40;55.00;;;;;;5967835;28;20056;-36
2022/11/09 09:10:43;;;;;;;0.95;0.43;;;21.80;54.60;;;;;;6003180;28;20053;-36
2022/11/09 09:13:47;;;;;;;0.95;0.28;;;21.80;54.80;;;;;;5999144;28;20045;-36
2022/11/09 09:16:49;;;;;;;1.00;0.30;;;21.80;53.90;;;;;;5988178;28;22849;-36
2022/11/09 09:19:51;;;;;;;0.95;0.30;;;21.40;54.90;;;;;;6001634;28;26399;-36
2022/11/09 09:22:53;;;;;;;0.32;0.22;;;21.70;53.70;;;;;;5980367;28;20045;-36
2022/11/09 09:25:58;;;;;;;0.55;0.32;;;21.80;54.90;;;;;;5969898;28;21471;-36
2022/11/09 09:29:01;;;;;;;0.70;0.63;;;21.70;53.90;;;;;;5980405;28;20922;-36
2022/11/09 09:32:05;;;;;;;1.55;0.50;;;22.00;55.10;;;;;;5916712;28;20175;-36
2022/11/09 09:35:13;;;;;;;0.80;0.30;;;21.90;54.30;;;;;;5969661;28;20176;-36
2022/11/09 09:38:18;;;;;;;0.32;0.20;;;21.60;55.00;;;;;;6021540;28;20061;-37
2022/11/09 09:41:40;;;;;;;0.80;0.55;;;21.40;53.60;;;;;;6021191;28;25604;-36
2022/11/09 09:44:53;;;;;;;0.50;0.40;;;22.10;55.20;;;;;;5985465;28;20037;-36
2022/11/09 09:48:05;;;;;;;0.63;0.38;;;21.80;55.00;;;;;;6005724;28;20078;-36
2022/11/09 09:51:13;;;;;;;0.80;0.50;;;21.90;55.00;;;;;;5996894;28;20356;-36
2022/11/09 09:54:22;;;;;;;0.50;0.30;;;21.90;55.00;;;;;;5998242;28;20037;-36
2022/11/09 09:57:29;;;;;;;0.40;0.30;;;21.70;55.10;;;;;;5983196;28;22442;-36
2022/11/09 10:00:37;;;;;;;0.70;0.32;;;21.70;55.10;;;;;;5949026;28;27699;-36
2022/11/09 10:03:43;;;;;;;0.20;0.20;;;21.80;55.20;;;;;;5938647;28;21068;-37
2022/11/09 10:06:59;;;;;;;0.57;0.20;;;21.80;54.20;;;;;;5949647;28;28306;-36
2022/11/09 10:10:17;;;;;;;0.70;0.40;;;21.90;55.20;;;;;;5959740;28;21984;-36
2022/11/09 10:13:36;;;;;;;0.50;0.30;;;21.40;55.10;;;;;;5922085;28;20041;-36
2022/11/09 10:16:48;;;;;;;0.50;0.22;;;21.90;55.30;;;;;;5938902;28;20080;-36
2022/11/09 10:20:10;;;;;;;1.10;0.43;;;22.00;55.50;;;;;;5872048;28;20125;-36
2022/11/09 10:23:35;;;;;;;8.93;1.67;;;21.60;55.30;;;;;;5900426;28;20059;-36
2022/11/09 10:26:43;;;;;;;1.60;0.60;;;21.90;55.40;;;;;;5907715;28;20068;-36
2022/11/09 10:29:51;;;;;;;0.60;0.40;;;21.90;55.40;;;;;;5927174;28;20057;-36
2022/11/09 10:33:13;;;;;;;0.60;0.40;;;21.90;54.30;;;;;;5975533;28;21358;-36
2022/11/09 10:36:24;;;;;;;0.38;0.30;;;21.70;55.40;;;;;;5958031;28;20040;-36
2022/11/09 10:39:40;;;;;;;0.50;0.30;;;21.40;55.10;;;;;;5999155;28;20159;-37
2022/11/09 10:43:00;;;;;;;0.77;0.40;;;22.00;55.60;;;;;;5997944;28;20901;-37
2022/11/09 10:46:20;;;;;;;0.40;0.30;;;21.70;55.50;;;;;;5946775;28;20052;-37
2022/11/09 10:49:40;;;;;;;0.73;0.30;;;21.90;55.20;;;;;;5943450;28;33151;-42
2022/11/09 10:53:09;;;;;;;0.40;0.30;;;21.70;55.30;;;;;;6030528;28;20050;-53
2022/11/09 10:56:26;;;;;;;0.32;0.30;;;22.00;55.40;;;;;;6027420;28;20044;-52
2022/11/09 10:59:57;;;;;;;0.47;0.30;;;22.00;55.30;;;;;;6046929;28;20049;-47
2022/11/09 11:03:19;;;;;;;2.42;0.28;;;21.60;54.80;;;;;;6027619;28;21507;-42
2022/11/09 11:06:39;;;;;;;0.47;0.20;;;22.20;54.50;;;;;;6029209;28;22158;-38
2022/11/09 11:10:09;;;;;;;1.38;0.40;;;21.80;54.60;;;;;;6062477;28;20055;-37
2022/11/09 11:13:26;;;;;;;1.05;0.40;;;22.20;54.70;;;;;;6065393;28;30116;-37
2022/11/09 11:16:51;;;;;;;0.45;0.30;;;22.20;54.50;;;;;;6043601;28;20071;-38
2022/11/09 11:20:28;;;;;;;0.25;0.17;;;22.00;53.40;;;;;;6044292;28;20055;-37
2022/11/09 11:24:13;;;;;;;0.22;0.20;;;22.40;54.40;;;;;;6014947;28;34111;-37
2022/11/09 11:27:42;;;;;;;0.32;0.22;;;22.20;54.20;;;;;;6069850;28;26893;-36
2022/11/09 11:30:57;;;;;;;0.52;0.30;;;22.20;54.20;;;;;;6092856;28;20095;-37
2022/11/09 11:34:17;;;;;;;0.77;0.28;;;21.90;53.90;;;;;;6111707;28;20053;-36
2022/11/09 11:38:07;;;;;;;1.05;0.30;;;22.20;54.30;;;;;;6117171;28;20041;-36
2022/11/09 11:41:40;;;;;;;0.50;0.20;;;22.10;53.80;;;;;;6113797;28;20056;-37
2022/11/09 11:45:11;;;;;;;0.20;0.20;;;22.20;53.80;;;;;;6133663;28;20094;-36
2022/11/09 11:49:14;;;;;;;0.52;0.20;;;22.80;53.90;;;;;;6128484;28;20055;-36
2022/11/09 11:52:38;;;;;;;0.50;0.30;;;21.60;53.20;;;;;;6129853;28;20190;-36
2022/11/09 11:56:17;;;;;;;0.50;0.30;;;22.20;53.50;;;;;;6125331;28;20055;-36
2022/11/09 11:59:52;;;;;;;0.93;0.20;;;22.10;53.30;;;;;;6142846;28;20552;-36
2022/11/09 12:03:26;;;;;;;0.40;0.30;;;22.20;53.40;;;;;;6129539;28;20071;-36
2022/11/09 12:07:08;;;;;;;1.30;0.30;;;22.00;53.00;;;;;;6121595;28;21003;-35
2022/11/09 12:10:41;;;;;;;0.85;0.30;;;22.10;53.10;;;;;;6141766;28;20049;-36
2022/11/09 12:14:08;;;;;;;0.80;0.35;;;22.30;53.30;;;;;;6138628;28;21401;-36
2022/11/09 12:17:40;;;;;;;0.65;0.20;;;22.20;53.10;;;;;;6128013;28;21229;-36
2022/11/09 12:21:10;;;;;;;0.70;0.30;;;21.90;53.10;;;;;;6117373;28;20083;-36
2022/11/09 12:24:34;;;;;;;0.30;0.30;;;22.20;52.70;;;;;;6147310;28;23999;-36
2022/11/09 12:28:02;;;;;;;1.05;0.20;;;22.20;52.70;;;;;;6105641;28;22588;-36
2022/11/09 12:31:33;;;;;;;0.60;0.20;;;22.10;52.50;;;;;;6139255;28;20060;-36
2022/11/09 12:34:55;;;;;;;0.80;0.28;;;21.90;52.60;;;;;;6122296;28;21675;-36
2022/11/09 12:38:14;;;;;;;0.70;0.20;;;22.30;52.40;;;;;;6068933;28;20186;-37
2022/11/09 12:41:30;;;;;;;0.63;0.30;;;22.30;52.40;;;;;;6049935;28;21085;-37
2022/11/09 12:45:02;;;;;;;0.85;0.28;;;22.10;52.40;;;;;;6087858;28;20060;-36
2022/11/09 12:48:24;;;;;;;0.30;0.20;;;21.80;52.00;;;;;;6083897;28;20061;-36
2022/11/09 12:52:05;;;;;;;0.90;0.40;;;21.90;52.00;;;;;;6060314;28;20159;-36
2022/11/09 12:55:25;;;;;;;1.17;0.35;;;22.10;50.60;;;;;;6074885;28;20071;-36
2022/11/09 12:58:38;;;;;;;1.08;0.50;;;22.30;52.00;;;;;;6015427;28;21384;-37
2022/11/09 13:02:00;;;;;;;1.27;0.50;;;22.30;52.00;;;;;;6021776;28;20155;-36
2022/11/09 13:05:34;;;;;;;2.75;0.57;;;22.00;51.80;;;;;;5997914;28;20067;-37
2022/11/09 13:09:03;;;;;;;0.82;0.30;;;22.20;51.70;;;;;;6015482;28;20569;-37
2022/11/09 13:12:25;;;;;;;0.73;0.30;;;22.20;51.60;;;;;;5994438;28;21494;-37
2022/11/09 13:15:38;;;;;;;5.70;1.27;;;22.40;51.60;;;;;;6036799;28;20174;-36
2022/11/09 13:18:57;;;;;;;2.63;0.80;;;22.30;51.50;;;;;;6006590;28;20139;-36
2022/11/09 13:22:46;;;;;;;4.72;0.80;;;22.00;51.30;;;;;;6015500;28;20115;-36
2022/11/09 13:26:21;;;;;;;5.38;0.82;;;22.30;50.60;;;;;;6014845;28;20217;-36
2022/11/09 13:29:48;;;;;;;3.47;0.75;;;22.30;50.40;;;;;;5965062;28;20052;-36
2022/11/09 13:33:17;;;;;;;2.55;0.68;;;21.90;50.10;;;;;;6014328;28;21274;-37
2022/11/09 13:36:37;;;;;;;1.08;0.40;;;22.30;50.10;;;;;;6005760;22;20819;-37
2022/11/09 13:39:57;;;;;;;1.52;0.30;;;21.80;50.10;;;;;;6053448;28;20056;-37
2022/11/09 13:43:23;;;;;;;1.38;0.30;;;22.00;50.10;;;;;;6039085;28;20169;-37
2022/11/09 13:46:38;;;;;;;2.05;0.30;;;22.40;49.80;;;;;;6004149;28;20049;-36
2022/11/09 13:49:57;;;;;;;1.58;0.32;;;22.30;49.70;;;;;;6011312;28;20175;-35
2022/11/09 13:53:47;;;;;;;0.57;0.30;;;22.00;49.40;;;;;;6013122;28;21412;-35
2022/11/09 13:57:09;;;;;;;1.92;0.40;;;21.90;49.30;;;;;;5985807;28;20060;-35
2022/11/09 14:00:28;;;;;;;1.83;0.30;;;22.50;49.60;;;;;;5982483;28;22840;-36
2022/11/09 14:03:50;;;;;;;0.85;0.13;;;22.00;49.20;;;;;;6010405;28;20044;-35
2022/11/09 14:07:15;;;;;;;3.67;0.40;;;22.50;49.40;;;;;;5971956;28;20057;-37
2022/11/09 14:10:54;;;;;;;0.40;0.20;;;22.40;49.30;;;;;;6004337;28;20056;-39
2022/11/09 14:14:33;;;;;;;0.63;0.28;;;22.30;48.70;;;;;;6000878;28;21161;-35
2022/11/09 14:17:59;;;;;;;0.63;0.30;;;22.50;48.40;;;;;;5997150;28;20049;-36
2022/11/09 14:21:36;;;;;;;1.75;0.20;;;22.40;49.00;;;;;;5968302;28;29316;-35
2022/11/09 14:24:57;;;;;;;0.45;0.20;;;22.60;49.20;;;;;;5985767;28;20045;-36
2022/11/09 14:28:21;;;;;;;0.63;0.10;;;22.30;49.10;;;;;;5984723;28;20130;-36
2022/11/09 14:31:42;;;;;;;0.57;0.30;;;22.10;48.60;;;;;;5986297;28;20114;-37
2022/11/09 14:35:17;;;;;;;0.80;0.30;;;22.30;48.80;;;;;;6033159;28;21402;-35
2022/11/09 14:38:47;;;;;;;0.95;0.30;;;22.60;48.50;;;;;;5975313;28;21210;-36
2022/11/09 14:42:11;;;;;;;0.32;0.20;;;22.60;48.80;;;;;;5998724;28;20670;-38
2022/11/09 14:45:28;;;;;;;2.58;0.22;;;22.60;48.60;;;;;;6009392;28;20052;-36
2022/11/09 14:48:51;;;;;;;0.55;0.30;;;22.70;48.50;;;;;;5969720;28;20049;-36
2022/11/09 14:52:11;;;;;;;0.50;0.15;;;22.80;48.40;;;;;;6004767;28;20145;-36
2022/11/09 14:55:28;;;;;;;0.80;0.30;;;22.80;48.20;;;;;;5995649;28;20183;-36
2022/11/09 14:58:48;;;;;;;0.95;0.10;;;23.00;48.10;;;;;;5991057;28;22087;-36
2022/11/09 15:02:11;;;;;;;0.73;0.20;;;22.90;48.00;;;;;;5969383;28;27223;-37
2022/11/09 15:05:31;;;;;;;1.75;0.40;;;22.80;47.80;;;;;;5968569;28;20856;-37
2022/11/09 15:08:54;;;;;;;1.33;0.20;;;22.90;47.80;;;;;;5987179;28;20063;-36
2022/11/09 15:12:13;;;;;;;1.60;0.35;;;23.00;47.80;;;;;;5988393;28;20068;-36
2022/11/09 15:15:29;;;;;;;1.40;0.40;;;22.90;47.80;;;;;;5997600;28;23396;-35
2022/11/09 15:18:48;;;;;;;1.08;0.40;;;22.70;47.80;;;;;;6006194;28;20059;-36
2022/11/09 15:22:36;;;;;;;2.15;0.35;;;22.60;47.90;;;;;;6009698;28;20345;-36
2022/11/09 15:25:58;;;;;;;1.25;0.47;;;22.60;47.90;;;;;;6016989;28;20057;-36
2022/11/09 15:29:28;;;;;;;1.52;0.28;;;22.50;48.00;;;;;;6022748;28;20045;-35
2022/11/09 15:32:47;;;;;;;1.70;0.30;;;23.00;48.40;;;;;;6013762;28;20056;-35
2022/11/09 15:36:24;;;;;;;1.58;0.40;;;22.80;48.50;;;;;;6009987;28;20049;-35
2022/11/09 15:39:37;;;;;;;0.63;0.20;;;22.50;48.10;;;;;;5996012;28;20052;-35
2022/11/09 15:42:58;;;;;;;0.40;0.25;;;22.90;48.50;;;;;;6021324;28;20053;-35
2022/11/09 15:46:20;;;;;;;0.75;0.20;;;22.90;48.60;;;;;;6002694;28;20041;-35
2022/11/09 15:49:37;;;;;;;0.85;0.38;;;22.90;48.70;;;;;;5978695;28;20056;-35
2022/11/09 15:52:57;;;;;;;0.52;0.38;;;22.80;48.70;;;;;;5985516;28;21588;-35
2022/11/09 15:56:20;;;;;;;0.95;0.28;;;22.40;48.50;;;;;;5991848;28;20055;-36
2022/11/09 15:59:38;;;;;;;1.58;0.28;;;22.90;48.90;;;;;;5979714;28;20045;-35
2022/11/09 16:02:57;;;;;;;0.55;0.20;;;22.60;48.60;;;;;;5983166;28;20049;-35
2022/11/09 16:06:21;;;;;;;1.45;0.30;;;22.90;49.00;;;;;;6002117;28;20091;-37
2022/11/09 16:09:38;;;;;;;0.47;0.32;;;23.60;49.00;;;;;;6031183;28;22323;-36
2022/11/09 16:12:57;;;;;;;0.60;0.30;;;22.80;48.90;;;;;;6032971;28;20052;-36
2022/11/09 16:16:18;;;;;;;1.23;0.32;;;23.00;49.00;;;;;;6031948;28;20053;-36
2022/11/09 16:19:38;;;;;;;0.30;0.30;;;23.00;49.10;;;;;;6009908;28;22202;-36
2022/11/09 16:22:57;;;;;;;0.45;0.30;;;22.80;49.10;;;;;;6024108;22;20363;-36
2022/11/09 16:26:19;;;;;;;0.70;0.38;;;22.80;49.10;;;;;;6009706;28;21331;-36
2022/11/09 16:29:39;;;;;;;1.60;0.32;;;23.00;49.60;;;;;;6019970;28;20067;-36
2022/11/09 16:32:58;;;;;;;1.63;0.50;;;22.90;49.20;;;;;;6042777;28;20089;-37
2022/11/09 16:36:20;;;;;;;0.95;0.30;;;23.00;49.30;;;;;;6055821;28;20048;-37
2022/11/09 16:39:38;;;;;;;0.43;0.20;;;23.10;49.50;;;;;;6014017;28;20052;-37
2022/11/09 16:42:59;;;;;;;0.70;0.32;;;23.30;49.60;;;;;;6066676;28;20052;-38